Salem, IL

11:45 PM CST on February 12, 2016 (GMT -0600)
Department of Emergency Management | | Change Station
CLOSE
Current Station
Personal Weather Station
Location: Salem, IL
Elevation: 571 ft
Nearby Weather Stations

Elev 571 ft 38.63 °N, 88.94 °W | Updated 35 seconds ago

Clear
Clear
18.3 °F
Feels Like 7 °F
N
10.0
Wind Variable Wind from NNW
Gusts 17.0 mph

Today
High -- | Low -- °F
--% Chance of Precip.
Yesterday
High -- | Low -- °F
Precip. -- in
Pressure 30.49 in
Visibility 10.0 miles
Clouds Clear
Windchill 7 °F
Dew Point -9 °F
Humidity 28%
Rainfall 0.00 in
Snow Depth Not available.
6:50 AM 5:29 PM
Waxing Crescent, 27% visible
METAR KSLO 130535Z AUTO 33016G24KT 10SM CLR M07/M14 A3049 RMK AO2 T10671143
Pressure 30.49 in
Visibility 10.0 miles
Clouds Clear
Windchill 7 °F
Dew Point -9 °F
Humidity 28%
Rainfall 0.00 in
Snow Depth Not available.
6:50 AM 5:29 PM
Waxing Crescent, 27% visible
METAR KSLO 130535Z AUTO 33016G24KT 10SM CLR M07/M14 A3049 RMK AO2 T10671143

10-Day Weather Forecast

Almanac

Astronomy

Feb. 12, 2016 Rise Set
Actual Time
Civil Twilight
Nautical Twilight
Astronomical Twilight
Moon
Length of Visible Light
Length of Day
Tomorrow will be .
, % of the Moon is Illuminated

Today's Extremes

State Highs State Lows

Community

WunderPhotos

Upload Photos

1,892,507 photos uploaded!

WunderBlog® & News

Nearby

Air Quality

  Air Quality AQ Index Pollutant
Not available.

Snow Depth

Station Depth Elevation

Earthquake Activity

City Distance Mag. Time & Date
Minimum magnitude displayed is 2.5.

Coastal Water Temperatures

Place Temperature

Stations

Nearby Weather Stations

Station Location Temp. Windchill Dew Point Humidity Wind Precip. Elev Updated Type
                   

Watches & Warnings

There are currently no watches in effect.